Roslyn, New York
Current Conditions -  °F | °C
As of 10:51 AM on Thursday 18 Dec 2014 (Local Time) from KLGA Reporting Station
Broken Clouds Broken Clouds  
Wind Chill: 32°   Ceiling: 4200
Heat Index: 40°   Visibility: 10mi
Dew Point: 25°   Wind: 15mph
Humidity: 55%   Direction: 310°NW
Pressure: 29.98"   Gusts: 25mph
Location:  40.8°N, 73.65°W
Report Text: KLGA 181551Z 31013G22KT 10SM BKN042 04/M04 A2998 RMK AO2 PK WND 31026/1515 SLP152 T00441039
Loading
Personal Weather Stations






























Interactive Weather Map New forecast layout! Learn more

10-Day Weather Forecast

Advertisements
Track Severe Weather on mobile